Time;durP1;ratioP1;P1;durP2;ratioP2;P2;SDS_P1;SDS_P2;PMS_P1;PMS_P2;Temp;Humidity;BMP_temperature;BMP_pressure;BME280_temperature;BME280_humidity;BME280_pressure;Samples;Min_cycle;Max_cycle;Signal;HPM_P1;HPM_P2
2022/11/06 00:02:24;;;;;;;10.07;4.60;;;;;;;8.35;100.00;101397.13;5089778;28;20036;-71
2022/11/06 00:04:49;;;;;;;9.77;4.47;;;;;;;8.30;100.00;101384.31;5089597;28;20056;-72
2022/11/06 00:07:15;;;;;;;8.98;4.35;;;;;;;8.37;100.00;101394.31;5089500;28;20471;-72
2022/11/06 00:09:40;;;;;;;10.27;3.83;;;;;;;8.40;100.00;101399.31;5089366;28;20463;-72
2022/11/06 00:12:06;;;;;;;8.15;3.78;;;;;;;8.40;100.00;101399.31;5089441;28;20032;-72
2022/11/06 00:14:31;;;;;;;10.07;4.43;;;;;;;8.27;100.00;101391.81;5089531;28;20059;-71
2022/11/06 00:16:56;;;;;;;9.40;4.07;;;;;;;8.28;100.00;101396.16;5071081;28;20107;-72
2022/11/06 00:19:22;;;;;;;6.18;3.35;;;;;;;8.25;100.00;101394.66;5089331;28;20177;-72
2022/11/06 00:21:47;;;;;;;12.65;6.65;;;;;;;8.29;100.00;101403.13;5089136;28;20073;-72
2022/11/06 00:24:14;;;;;;;5.85;3.78;;;;;;;8.27;100.00;101403.25;5089468;28;20062;-72
2022/11/06 00:26:41;;;;;;;9.98;3.42;;;;;;;8.22;100.00;101396.81;5089351;28;20028;-71
2022/11/06 00:29:06;;;;;;;7.47;4.57;;;;;;;8.18;100.00;101391.00;5089398;28;20032;-72
2022/11/06 00:31:34;;;;;;;7.68;3.33;;;;;;;8.19;100.00;101394.47;5088623;28;20510;-72
2022/11/06 00:34:01;;;;;;;11.07;4.45;;;;;;;8.11;100.00;101384.69;5089478;28;20020;-72
2022/11/06 00:36:31;;;;;;;6.68;3.90;;;;;;;8.11;100.00;101390.00;5089270;28;20028;-72
2022/11/06 00:38:57;;;;;;;8.65;3.25;;;;;;;8.12;100.00;101391.66;5089256;28;20031;-71
2022/11/06 00:41:23;;;;;;;6.85;4.45;;;;;;;8.07;100.00;101378.88;5089303;28;20495;-72
2022/11/06 00:43:50;;;;;;;7.65;3.88;;;;;;;8.12;100.00;101381.88;5089333;28;20367;-72
2022/11/06 00:46:17;;;;;;;8.32;3.78;;;;;;;8.12;100.00;101378.38;5089112;28;20059;-72
2022/11/06 00:48:42;;;;;;;8.77;3.47;;;;;;;8.17;100.00;101376.03;5089365;28;20055;-71
2022/11/06 00:51:17;;;;;;;6.93;3.65;;;;;;;8.20;100.00;101370.41;5090743;28;20479;-72
2022/11/06 00:53:43;;;;;;;12.10;4.70;;;;;;;8.25;100.00;101377.84;5092781;28;20105;-72
2022/11/06 00:56:11;;;;;;;8.15;2.83;;;;;;;8.19;100.00;101363.41;5092682;28;20032;-72
2022/11/06 00:58:37;;;;;;;7.10;3.50;;;;;;;8.31;100.00;101382.53;5092760;28;20020;-72
2022/11/06 01:01:19;;;;;;;5.43;3.15;;;;;;;8.30;100.00;101378.19;5092086;28;20051;-71
2022/11/06 01:03:46;;;;;;;8.68;4.18;;;;;;;8.21;100.00;101365.94;5092676;28;20429;-71
2022/11/06 01:06:15;;;;;;;8.20;3.42;;;;;;;8.13;100.00;101361.44;5092562;28;20032;-72
2022/11/06 01:08:41;;;;;;;10.05;3.45;;;;;;;8.15;100.00;101367.44;5092274;28;20145;-72
2022/11/06 01:11:06;;;;;;;5.40;3.15;;;;;;;8.13;100.00;101372.91;5092521;28;20020;-71
2022/11/06 01:13:32;;;;;;;11.75;3.13;;;;;;;8.08;100.00;101379.72;5092147;28;20482;-71
2022/11/06 01:15:57;;;;;;;7.65;3.42;;;;;;;8.04;100.00;101371.25;5093656;28;20028;-71
2022/11/06 01:18:23;;;;;;;6.50;2.70;;;;;;;7.98;100.00;101371.09;5111765;28;20033;-72
2022/11/06 01:20:48;;;;;;;8.18;4.65;;;;;;;7.99;100.00;101381.56;5111528;28;20079;-71
2022/11/06 01:23:13;;;;;;;5.53;3.38;;;;;;;7.99;100.00;101373.59;5111604;28;20057;-72
2022/11/06 01:25:39;;;;;;;9.77;5.05;;;;;;;7.95;100.00;101356.31;5111630;28;20054;-72
2022/11/06 01:28:04;;;;;;;9.18;2.90;;;;;;;7.94;100.00;101354.66;5111629;28;20039;-72
2022/11/06 01:30:29;;;;;;;6.78;3.03;;;;;;;7.91;100.00;101352.31;5111509;28;20386;-71
2022/11/06 01:32:55;;;;;;;11.13;3.65;;;;;;;7.88;100.00;101353.47;5111169;28;20055;-71
2022/11/06 01:35:20;;;;;;;8.27;3.88;;;;;;;7.87;100.00;101351.00;5111401;28;20047;-71
2022/11/06 01:37:45;;;;;;;9.15;3.30;;;;;;;7.84;100.00;101352.16;5111421;28;20035;-71
2022/11/06 01:40:11;;;;;;;5.47;3.08;;;;;;;7.84;100.00;101356.66;5111348;28;20360;-71
2022/11/06 01:42:36;;;;;;;7.72;3.10;;;;;;;7.82;100.00;101345.38;5111272;28;20429;-72
2022/11/06 01:45:20;;;;;;;7.95;2.85;;;;;;;7.85;100.00;101353.00;5111202;28;20494;-71
2022/11/06 01:47:45;;;;;;;7.70;3.50;;;;;;;7.87;100.00;101343.03;5111395;28;20360;-72
2022/11/06 01:50:14;;;;;;;7.28;3.38;;;;;;;7.94;100.00;101332.56;5111312;28;20034;-72
2022/11/06 01:52:40;;;;;;;6.60;2.78;;;;;;;7.97;100.00;101333.06;5111406;28;20050;-72
2022/11/06 01:55:13;;;;;;;5.38;2.72;;;;;;;7.98;100.00;101332.06;5111122;28;20027;-71
2022/11/06 01:57:39;;;;;;;9.70;3.83;;;;;;;8.01;100.00;101329.06;5111250;28;20378;-71
2022/11/06 02:00:06;;;;;;;13.43;3.50;;;;;;;8.03;100.00;101334.22;5110913;28;20035;-71
2022/11/06 02:02:32;;;;;;;6.68;2.78;;;;;;;8.08;100.00;101329.25;5110729;28;20046;-71
2022/11/06 02:04:57;;;;;;;8.50;3.28;;;;;;;8.08;100.00;101323.94;5110853;28;20023;-72
2022/11/06 02:07:22;;;;;;;6.00;2.72;;;;;;;8.15;100.00;101326.72;5110921;28;20391;-72
2022/11/06 02:09:48;;;;;;;7.53;2.50;;;;;;;8.20;100.00;101327.91;5110752;28;20561;-72
2022/11/06 02:12:25;;;;;;;7.63;2.88;;;;;;;8.25;100.00;101325.56;5110879;28;20406;-72
2022/11/06 02:15:41;;;;;;;5.97;2.92;;;;;;;8.32;100.00;101328.34;5092022;28;20062;-71
2022/11/06 02:18:31;;;;;;;5.97;2.90;;;;;;;8.31;100.00;101319.56;5008032;28;20037;-71
2022/11/06 02:21:11;;;;;;;8.95;3.33;;;;;;;8.38;100.00;101317.03;5007921;28;20084;-71
2022/11/06 02:23:57;;;;;;;8.23;3.40;;;;;;;8.41;100.00;101315.91;5091040;28;20077;-71
2022/11/06 02:26:50;;;;;;;4.70;2.33;;;;;;;8.45;100.00;101315.41;5110434;28;20164;-72
2022/11/06 02:29:36;;;;;;;7.85;2.30;;;;;;;8.47;100.00;101304.59;5110435;28;20027;-71
2022/11/06 02:32:08;;;;;;;7.45;3.75;;;;;;;8.44;100.00;101295.13;5110466;28;20077;-71
2022/11/06 02:34:37;;;;;;;8.85;2.63;;;;;;;8.49;100.00;101300.78;5109748;28;20055;-71
2022/11/06 02:37:12;;;;;;;9.13;2.28;;;;;;;8.52;100.00;101311.06;5109975;28;20539;-72
2022/11/06 02:39:40;;;;;;;6.35;2.75;;;;;;;8.53;100.00;101306.56;5110357;28;20466;-72
2022/11/06 02:42:07;;;;;;;8.40;2.50;;;;;;;8.54;100.00;101301.09;5090394;28;20111;-71
2022/11/06 02:44:36;;;;;;;11.88;2.85;;;;;;;8.55;100.00;101291.28;5090400;28;20090;-71
2022/11/06 02:47:06;;;;;;;7.88;3.45;;;;;;;8.59;100.00;101300.53;5109678;28;20490;-72
2022/11/06 02:49:38;;;;;;;10.52;2.80;;;;;;;8.58;100.00;101290.09;5110111;28;20486;-72
2022/11/06 02:52:10;;;;;;;8.10;2.35;;;;;;;8.56;100.00;101291.09;5089958;28;20039;-71
2022/11/06 02:54:39;;;;;;;7.60;3.30;;;;;;;8.55;100.00;101285.97;5090508;28;20020;-71
2022/11/06 02:57:09;;;;;;;4.00;2.42;;;;;;;8.60;100.00;101288.94;5090362;28;20035;-72
2022/11/06 02:59:40;;;;;;;6.97;3.67;;;;;;;8.62;100.00;101286.06;5090475;28;20052;-71
2022/11/06 03:02:12;;;;;;;8.00;2.35;;;;;;;8.61;100.00;101282.59;5090447;28;20076;-72
2022/11/06 03:04:54;;;;;;;7.45;2.55;;;;;;;8.64;100.00;101284.91;5090294;28;20031;-71
2022/11/06 03:07:33;;;;;;;5.07;2.53;;;;;;;8.64;100.00;101284.09;5090272;28;20046;-71
2022/11/06 03:09:59;;;;;;;10.10;1.98;;;;;;;8.69;100.00;101292.38;5090291;28;20023;-72
2022/11/06 03:12:31;;;;;;;12.50;3.10;;;;;;;8.70;100.00;101288.72;5072036;28;20040;-71
2022/11/06 03:15:27;;;;;;;10.45;3.95;;;;;;;8.70;100.00;101288.72;5089784;28;20505;-71
2022/11/06 03:18:07;;;;;;;5.82;2.28;;;;;;;8.74;100.00;101293.50;5090030;28;20042;-72
2022/11/06 03:20:47;;;;;;;6.72;3.10;;;;;;;8.80;100.00;101299.94;5090057;28;20020;-72
2022/11/06 03:23:24;;;;;;;9.82;3.35;;;;;;;8.81;100.00;101301.63;5089978;28;20032;-72
2022/11/06 03:25:59;;;;;;;2.72;2.30;;;;;;;8.85;100.00;101294.94;5089870;28;20030;-72
2022/11/06 03:28:35;;;;;;;6.30;2.25;;;;;;;8.87;100.00;101278.81;5071696;28;20059;-71
2022/11/06 03:31:04;;;;;;;5.38;2.75;;;;;;;8.88;100.00;101286.66;5089634;28;20023;-71
2022/11/06 03:33:51;;;;;;;6.30;2.88;;;;;;;8.90;100.00;101278.47;5089896;28;20047;-71
2022/11/06 03:36:33;;;;;;;9.23;2.47;;;;;;;8.83;100.00;101259.75;5089634;28;20448;-72
2022/11/06 03:39:04;;;;;;;7.82;2.28;;;;;;;8.79;100.00;101253.09;5089827;28;20085;-72
2022/11/06 03:41:40;;;;;;;6.65;2.67;;;;;;;8.71;100.00;101255.81;5089935;28;20027;-72
2022/11/06 03:44:10;;;;;;;4.72;2.28;;;;;;;8.69;100.00;101255.16;5089793;28;20134;-71
2022/11/06 03:46:42;;;;;;;5.45;2.30;;;;;;;8.63;100.00;101246.03;5071519;28;20044;-72
2022/11/06 03:49:12;;;;;;;9.57;3.47;;;;;;;8.61;100.00;101256.00;5089603;28;20443;-72
2022/11/06 03:51:48;;;;;;;3.47;2.25;;;;;;;8.64;100.00;101252.19;5089958;28;20152;-72
2022/11/06 03:54:19;;;;;;;7.78;2.45;;;;;;;8.65;100.00;101244.03;5089821;28;20036;-72
2022/11/06 03:56:56;;;;;;;9.20;2.30;;;;;;;8.71;100.00;101246.00;5089699;28;20106;-71
2022/11/06 03:59:28;;;;;;;12.48;3.78;;;;;;;8.71;100.00;101223.91;5089276;28;20032;-71
2022/11/06 04:01:55;;;;;;;6.00;3.08;;;;;;;8.76;100.00;101227.69;5089624;28;20032;-72
2022/11/06 04:04:26;;;;;;;5.20;3.10;;;;;;;8.76;100.00;101227.69;5089539;28;20028;-72
2022/11/06 04:07:38;;;;;;;7.70;2.10;;;;;;;8.79;100.00;101229.16;5089661;28;20889;-72
2022/11/06 04:15:57;;;;;;;5.68;2.90;;;;;;;8.83;100.00;101216.31;5026824;28;20030;-72
2022/11/06 04:18:23;;;;;;;5.40;2.60;;;;;;;8.74;100.00;101191.63;5075981;28;20113;-72
2022/11/06 04:27:14;;;;;;;14.48;2.88;;;;;;;8.88;100.00;101200.66;5089743;28;20552;-71
2022/11/06 04:29:58;;;;;;;7.45;2.30;;;;;;;8.85;100.00;101203.69;5093381;28;20016;-72
2022/11/06 04:32:37;;;;;;;7.88;2.38;;;;;;;8.82;100.00;101194.22;5075057;28;20387;-72
2022/11/06 04:35:08;;;;;;;9.23;2.95;;;;;;;8.79;100.00;101194.59;5093179;28;20063;-72
2022/11/06 04:37:57;;;;;;;8.57;3.40;;;;;;;8.77;100.00;101185.94;5092441;28;20028;-72
2022/11/06 04:40:31;;;;;;;5.90;2.30;;;;;;;8.74;100.00;101187.13;5079105;28;20046;-72
2022/11/06 04:43:13;;;;;;;8.40;3.00;;;;;;;8.75;100.00;101180.81;5093026;28;20487;-72
2022/11/06 04:45:44;;;;;;;10.38;3.05;;;;;;;8.75;100.00;101174.66;5092771;28;20444;-72
2022/11/06 04:48:11;;;;;;;5.95;2.47;;;;;;;8.73;100.00;101185.50;5092950;28;20407;-72
2022/11/06 04:50:43;;;;;;;9.52;3.15;;;;;;;8.70;100.00;101182.38;5092981;28;20073;-72
2022/11/06 04:53:10;;;;;;;4.90;2.92;;;;;;;8.66;100.00;101181.06;5092441;28;20028;-72
2022/11/06 04:55:52;;;;;;;5.15;2.65;;;;;;;8.62;100.00;101171.75;5092688;28;20169;-72
2022/11/06 04:58:18;;;;;;;8.05;3.25;;;;;;;8.54;100.00;101172.63;5092779;28;20108;-72
2022/11/06 05:00:49;;;;;;;6.60;2.55;;;;;;;8.49;100.00;101175.00;5092395;28;20110;-72
2022/11/06 05:03:15;;;;;;;6.40;3.38;;;;;;;8.44;100.00;101175.53;5092791;28;20082;-72
2022/11/06 05:05:41;;;;;;;7.75;3.55;;;;;;;8.40;100.00;101186.69;5092523;28;20027;-72
2022/11/06 05:08:13;;;;;;;8.23;3.55;;;;;;;8.35;100.00;101180.00;5092774;28;20028;-72
2022/11/06 05:10:38;;;;;;;;;;;;;;;8.35;100.00;101172.03;5112620;28;20494;-71
2022/11/06 05:13:04;;;;;;;5.27;2.43;;;;;;;8.31;100.00;101164.59;5111966;28;20014;-71
2022/11/06 05:15:29;;;;;;;7.72;3.20;;;;;;;8.22;100.00;101163.78;5111888;28;20077;-71
2022/11/06 05:17:56;;;;;;;5.47;2.55;;;;;;;8.22;100.00;101166.47;5111863;28;20031;-72
2022/11/06 05:20:21;;;;;;;4.30;2.67;;;;;;;8.20;100.00;101160.50;5111693;28;20038;-72
2022/11/06 05:23:02;;;;;;;6.45;3.33;;;;;;;8.19;100.00;101163.34;5111499;28;20039;-72
2022/11/06 05:25:35;;;;;;;5.32;2.67;;;;;;;8.12;100.00;101144.59;5111747;28;20085;-72
2022/11/06 05:28:06;;;;;;;7.32;2.50;;;;;;;8.16;100.00;101153.06;5111722;28;20455;-71
2022/11/06 05:30:34;;;;;;;7.72;2.67;;;;;;;8.13;100.00;101156.88;5111759;28;20082;-71
2022/11/06 05:32:59;;;;;;;7.55;2.85;;;;;;;8.13;100.00;101154.22;5111466;28;20045;-72
2022/11/06 05:35:25;;;;;;;7.07;2.47;;;;;;;8.07;100.00;101147.78;5111413;28;20462;-72
2022/11/06 05:37:50;;;;;;;6.03;2.60;;;;;;;8.13;100.00;101155.06;5110977;28;20036;-72
2022/11/06 05:40:15;;;;;;;6.07;3.33;;;;;;;8.12;100.00;101157.88;5110717;28;20022;-72
2022/11/06 05:42:42;;;;;;;7.50;2.70;;;;;;;8.12;100.00;101150.75;5110714;28;20455;-72
2022/11/06 05:45:08;;;;;;;6.53;2.70;;;;;;;8.13;100.00;101148.91;5111248;28;20597;-72
2022/11/06 05:47:34;;;;;;;8.25;3.15;;;;;;;8.13;100.00;101143.59;5111255;28;20063;-72
2022/11/06 05:49:59;;;;;;;5.65;3.17;;;;;;;8.05;100.00;101136.50;5111252;28;20124;-72
2022/11/06 05:52:25;;;;;;;7.35;2.80;;;;;;;8.09;100.00;101129.00;5111079;28;20159;-72
2022/11/06 05:54:50;;;;;;;8.55;3.00;;;;;;;8.09;100.00;101134.31;5111229;28;20031;-72
2022/11/06 05:57:16;;;;;;;18.02;3.83;;;;;;;8.09;100.00;101135.13;5111108;28;20398;-72
2022/11/06 05:59:41;;;;;;;4.72;2.70;;;;;;;8.10;100.00;101128.84;5111063;28;20038;-72
2022/11/06 06:02:07;;;;;;;9.00;3.15;;;;;;;8.13;100.00;101139.09;5111157;28;20035;-72
2022/11/06 06:04:32;;;;;;;10.07;3.50;;;;;;;8.19;100.00;101134.09;5110983;28;20765;-72
2022/11/06 06:06:58;;;;;;;8.38;2.70;;;;;;;8.20;100.00;101136.59;5110830;28;20586;-72
2022/11/06 06:09:23;;;;;;;6.53;3.00;;;;;;;8.21;100.00;101127.63;5110829;28;20034;-72
2022/11/06 06:11:52;;;;;;;5.82;2.90;;;;;;;8.21;100.00;101129.44;5110323;28;20031;-71
2022/11/06 06:14:19;;;;;;;8.18;3.33;;;;;;;8.20;100.00;101130.44;5110730;28;20035;-72
2022/11/06 06:16:44;;;;;;;5.30;2.67;;;;;;;8.26;100.00;101127.91;5110576;28;20028;-72
2022/11/06 06:19:09;;;;;;;9.85;2.90;;;;;;;8.27;100.00;101126.91;5110647;28;20608;-72
2022/11/06 06:21:35;;;;;;;6.82;3.33;;;;;;;8.30;100.00;101118.59;5110599;28;20043;-71
2022/11/06 06:24:02;;;;;;;7.82;3.75;;;;;;;8.37;100.00;101120.56;5110394;28;20981;-72
2022/11/06 06:26:27;;;;;;;5.72;2.58;;;;;;;8.38;100.00;101120.38;5110348;28;20028;-72
2022/11/06 06:28:53;;;;;;;5.82;2.88;;;;;;;8.38;100.00;101114.22;5110346;28;20047;-72
2022/11/06 06:31:18;;;;;;;5.00;2.70;;;;;;;8.37;100.00;101108.09;5092046;28;20081;-72
2022/11/06 06:33:44;;;;;;;4.10;2.40;;;;;;;8.34;100.00;101106.63;5110450;28;20498;-72
2022/11/06 06:36:09;;;;;;;6.90;2.88;;;;;;;8.39;100.00;101111.44;5110507;28;20036;-72
2022/11/06 06:38:35;;;;;;;6.03;3.10;;;;;;;8.37;100.00;101121.38;5110221;28;20454;-72
2022/11/06 06:41:05;;;;;;;6.93;3.25;;;;;;;8.37;100.00;101112.59;5109954;28;20034;-72
2022/11/06 06:43:31;;;;;;;10.75;2.90;;;;;;;8.41;100.00;101120.06;5109419;28;20030;-73
2022/11/06 06:45:59;;;;;;;4.97;2.67;;;;;;;8.38;100.00;101115.06;5109959;28;20047;-72
2022/11/06 06:48:24;;;;;;;10.15;2.60;;;;;;;8.40;100.00;101113.09;5109229;28;20028;-72
2022/11/06 06:50:50;;;;;;;7.00;2.30;;;;;;;8.48;100.00;101130.81;5091821;28;20030;-72
2022/11/06 06:53:15;;;;;;;8.00;2.47;;;;;;;8.57;100.00;101137.75;5110000;28;20028;-72
2022/11/06 06:55:40;;;;;;;9.20;2.65;;;;;;;8.62;100.00;101121.25;5110027;28;20377;-72
2022/11/06 06:58:06;;;;;;;8.63;2.55;;;;;;;8.65;100.00;101123.56;5110066;28;20051;-72
2022/11/06 07:00:31;;;;;;;11.55;2.85;;;;;;;8.62;100.00;101105.28;5109659;28;20045;-72
2022/11/06 07:02:57;;;;;;;7.07;2.90;;;;;;;8.66;100.00;101115.41;5109850;28;20035;-72
2022/11/06 07:05:22;;;;;;;7.95;4.65;;;;;;;8.65;100.00;101108.44;5109879;28;20501;-72
2022/11/06 07:07:48;;;;;;;5.53;3.13;;;;;;;8.65;100.00;101104.97;5109766;28;20474;-72
2022/11/06 07:10:13;;;;;;;4.43;2.22;;;;;;;8.66;100.00;101106.59;5109874;28;20027;-72
2022/11/06 07:12:38;;;;;;;6.05;2.67;;;;;;;8.67;100.00;101108.25;5109699;28;20497;-72
2022/11/06 07:15:05;;;;;;;4.10;2.40;;;;;;;8.71;100.00;101105.06;5109653;28;20481;-72
2022/11/06 07:17:30;;;;;;;5.93;2.53;;;;;;;8.77;100.00;101107.00;5091204;28;20088;-72
2022/11/06 07:19:55;;;;;;;6.35;2.20;;;;;;;8.84;100.00;101108.97;5109587;28;20085;-72
2022/11/06 07:22:20;;;;;;;5.82;2.83;;;;;;;8.93;100.00;101106.06;5109526;28;20055;-72
2022/11/06 07:24:46;;;;;;;4.80;2.47;;;;;;;9.02;100.00;101104.16;5109205;28;20031;-72
2022/11/06 07:27:11;;;;;;;6.40;2.35;;;;;;;9.10;100.00;101106.72;5109451;28;20119;-72
2022/11/06 07:29:36;;;;;;;11.40;3.35;;;;;;;9.17;100.00;101102.34;5109410;28;20055;-72
2022/11/06 07:32:02;;;;;;;4.85;2.70;;;;;;;9.20;100.00;101094.00;5109142;28;20039;-72
2022/11/06 07:34:27;;;;;;;6.22;2.75;;;;;;;9.30;100.00;101098.22;5090811;28;20027;-72
2022/11/06 07:36:53;;;;;;;9.13;3.35;;;;;;;9.33;100.00;101096.03;5109270;28;20092;-72
2022/11/06 07:39:18;;;;;;;8.30;3.15;;;;;;;9.36;100.00;101105.50;5109302;28;20033;-72
2022/11/06 07:41:43;;;;;;;5.55;2.30;;;;;;;9.39;100.00;101103.28;5109251;28;20039;-72
2022/11/06 07:44:09;;;;;;;7.53;3.03;;;;;;;9.37;100.00;101107.13;5108900;28;20072;-72
2022/11/06 07:46:34;;;;;;;7.20;2.67;;;;;;;9.42;100.00;101110.06;5089906;28;20154;-72
2022/11/06 07:49:00;;;;;;;6.50;2.17;;;;;;;9.42;100.00;101112.72;5108940;28;20051;-72
2022/11/06 07:51:26;;;;;;;3.58;2.08;;;;;;;9.43;100.00;101112.56;5108278;28;20615;-72
2022/11/06 07:53:51;;;;;;;8.95;3.08;;;;;;;9.46;100.00;101113.19;5108396;28;20453;-72
2022/11/06 07:56:16;;;;;;;5.93;3.00;;;;;;;9.43;100.00;101103.72;5090032;28;20028;-72
2022/11/06 07:58:42;;;;;;;6.15;2.30;;;;;;;9.46;100.00;101099.88;5108511;28;20106;-72
2022/11/06 08:01:13;;;;;;;3.78;2.15;;;;;;;9.45;100.00;101093.72;5093344;28;20042;-72
2022/11/06 08:03:39;;;;;;;9.13;2.83;;;;;;;9.50;100.00;101091.34;5113010;28;20024;-72
2022/11/06 08:06:04;;;;;;;8.38;2.42;;;;;;;9.61;100.00;101092.72;5112884;28;20027;-72
2022/11/06 08:08:30;;;;;;;7.65;2.90;;;;;;;9.80;100.00;101081.50;5112555;28;20027;-72
2022/11/06 08:11:01;;;;;;;5.97;2.40;;;;;;;9.93;100.00;101083.50;5113081;28;20027;-72
2022/11/06 08:13:26;;;;;;;6.07;3.45;;;;;;;9.94;100.00;101087.81;5112725;28;20050;-72
2022/11/06 08:15:51;;;;;;;9.88;2.38;;;;;;;9.97;100.00;101092.78;5094016;28;20035;-72
2022/11/06 08:18:16;;;;;;;10.75;3.95;;;;;;;9.99;100.00;101095.25;5112326;28;20020;-72
2022/11/06 08:20:42;;;;;;;6.03;2.63;;;;;;;10.01;100.00;101093.25;5112315;28;20144;-72
2022/11/06 08:23:11;;;;;;;6.15;3.10;;;;;;;9.98;100.00;101088.25;5112637;28;20059;-72
2022/11/06 08:25:36;;;;;;;5.35;1.90;;;;;;;10.01;100.00;101090.56;5112662;28;20110;-72
2022/11/06 08:28:02;;;;;;;4.18;2.17;;;;;;;10.00;100.00;101073.75;5112579;28;20034;-72
2022/11/06 08:30:29;;;;;;;6.47;2.72;;;;;;;10.07;100.00;101071.16;5094249;28;20047;-72
2022/11/06 08:32:58;;;;;;;9.63;2.35;;;;;;;10.15;99.49;101068.38;5112154;28;20081;-72
2022/11/06 08:35:24;;;;;;;6.47;3.03;;;;;;;10.27;99.00;101061.59;5112494;28;20023;-72
2022/11/06 08:37:49;;;;;;;9.13;2.92;;;;;;;10.35;98.86;101065.13;5112602;28;20543;-72
2022/11/06 08:40:14;;;;;;;5.50;2.33;;;;;;;10.39;99.52;101071.72;5112443;28;20399;-72
2022/11/06 08:42:40;;;;;;;5.60;2.97;;;;;;;10.36;98.74;101058.78;5094047;28;20505;-73
2022/11/06 08:45:05;;;;;;;4.45;2.28;;;;;;;10.43;98.87;101060.50;5112331;28;20475;-72
2022/11/06 08:47:31;;;;;;;4.00;2.35;;;;;;;10.34;97.88;101034.97;5111863;28;20523;-72
2022/11/06 08:49:56;;;;;;;5.88;2.10;;;;;;;10.49;98.19;101054.41;5096716;28;20059;-70
2022/11/06 08:52:22;;;;;;;4.22;1.70;;;;;;;10.53;98.30;101042.34;5106258;28;20035;-73
2022/11/06 08:54:47;;;;;;;3.53;1.92;;;;;;;10.57;97.71;101039.28;5092362;28;20577;-71
2022/11/06 08:57:12;;;;;;;5.60;2.50;;;;;;;10.60;97.74;101050.38;5111106;28;20478;-72
2022/11/06 08:59:38;;;;;;;5.00;2.28;;;;;;;10.61;96.79;101041.41;5111336;28;20431;-70
2022/11/06 09:02:03;;;;;;;8.70;2.55;;;;;;;10.68;96.81;101031.59;5111564;28;20050;-71
2022/11/06 09:04:28;;;;;;;7.20;2.40;;;;;;;10.84;96.70;101025.13;5112065;28;20023;-71
2022/11/06 09:06:55;;;;;;;4.72;1.67;;;;;;;11.00;96.20;101036.53;5111768;28;20039;-70
2022/11/06 09:09:20;;;;;;;8.57;2.55;;;;;;;11.18;95.30;101020.84;5093329;28;20112;-71
2022/11/06 09:11:46;;;;;;;7.22;2.35;;;;;;;11.32;94.91;101022.59;5110110;28;20117;-71
2022/11/06 09:14:11;;;;;;;4.53;2.30;;;;;;;11.37;94.65;101005.94;5110977;28;20031;-70
2022/11/06 09:16:37;;;;;;;5.88;2.38;;;;;;;11.49;93.79;100995.53;5111533;28;20066;-70
2022/11/06 09:19:02;;;;;;;4.82;2.63;;;;;;;11.62;92.57;101012.44;5111229;28;20470;-70
2022/11/06 09:21:27;;;;;;;4.55;2.10;;;;;;;11.67;92.36;100995.81;5111411;28;20665;-70
2022/11/06 09:23:53;;;;;;;4.45;1.85;;;;;;;11.71;92.31;100983.72;5111761;28;20459;-70
2022/11/06 09:26:18;;;;;;;13.20;2.72;;;;;;;11.77;92.21;100990.91;5111701;28;20024;-70
2022/11/06 09:28:44;;;;;;;4.95;1.77;;;;;;;11.77;91.16;100984.75;5111542;28;20032;-70
2022/11/06 09:31:10;;;;;;;3.20;1.60;;;;;;;11.82;90.87;100980.44;5111628;28;20117;-70
2022/11/06 09:33:35;;;;;;;2.70;1.85;;;;;;;11.84;92.55;100967.72;5111509;28;20031;-70
2022/11/06 09:36:05;;;;;;;3.45;1.60;;;;;;;11.99;91.27;100975.56;5111435;28;20038;-71
2022/11/06 09:38:31;;;;;;;3.50;1.70;;;;;;;12.13;90.54;100971.09;5111431;28;20550;-70
2022/11/06 09:40:59;;;;;;;5.30;2.17;;;;;;;12.25;90.17;100964.09;5111266;28;20028;-70
2022/11/06 09:43:42;;;;;;;4.18;1.55;;;;;;;12.34;89.76;100967.41;5093038;28;20031;-71
2022/11/06 09:46:24;;;;;;;4.45;2.17;;;;;;;12.48;89.32;100977.06;5091776;28;20078;-73
2022/11/06 09:48:56;;;;;;;7.50;2.30;;;;;;;12.51;88.10;100962.44;5091922;28;20093;-71
2022/11/06 09:51:58;;;;;;;2.30;1.65;;;;;;;12.52;90.33;100966.75;5091632;28;20292;-71
2022/11/06 09:54:39;;;;;;;5.20;1.77;;;;;;;12.41;88.76;100970.88;5091692;28;20542;-71
2022/11/06 09:57:48;;;;;;;4.80;1.58;;;;;;;12.28;89.44;100970.88;5100076;28;20027;-71
2022/11/06 10:00:15;;;;;;;4.22;1.70;;;;;;;12.13;86.68;100980.94;5084111;28;20027;-72
2022/11/06 10:02:47;;;;;;;9.90;2.28;;;;;;;12.12;88.44;100969.44;5110866;28;20035;-72
2022/11/06 10:05:32;;;;;;;5.43;1.70;;;;;;;12.17;88.89;100969.63;5110986;28;20039;-71
2022/11/06 10:08:21;;;;;;;8.40;2.03;;;;;;;12.12;89.96;100963.25;5110350;28;20406;-71
2022/11/06 10:10:54;;;;;;;7.38;2.33;;;;;;;11.92;86.93;100957.88;5110886;28;20114;-71
2022/11/06 10:14:01;;;;;;;6.38;1.75;;;;;;;11.83;89.72;100971.41;5110890;28;20490;-71
2022/11/06 10:17:02;;;;;;;7.32;2.42;;;;;;;11.85;89.58;100947.97;5095397;28;20028;-71
2022/11/06 10:19:55;;;;;;;3.70;1.70;;;;;;;11.80;88.58;100960.31;5110528;28;20032;-71
2022/11/06 10:22:33;;;;;;;4.38;1.63;;;;;;;11.77;89.73;100956.19;5110342;28;20418;-71
2022/11/06 10:25:02;;;;;;;3.28;1.67;;;;;;;11.96;88.84;100938.56;5110555;28;20102;-72
2022/11/06 10:27:38;;;;;;;5.18;1.98;;;;;;;12.26;89.17;100946.19;5110614;28;20027;-71
2022/11/06 10:30:10;;;;;;;3.30;1.88;;;;;;;12.28;86.59;100939.59;5110454;28;20016;-71
2022/11/06 10:32:53;;;;;;;5.53;1.85;;;;;;;12.22;86.31;100934.28;5110355;28;20038;-71
2022/11/06 10:35:22;;;;;;;11.10;2.20;;;;;;;12.05;86.61;100936.50;5090558;28;20498;-71
2022/11/06 10:38:09;;;;;;;4.60;1.55;;;;;;;11.95;88.30;100934.25;5090959;28;20027;-71
2022/11/06 10:40:35;;;;;;;2.60;1.70;;;;;;;11.75;86.34;100939.53;5090752;28;20043;-71
2022/11/06 10:43:36;;;;;;;7.22;2.13;;;;;;;11.66;89.08;100932.72;5090877;28;20032;-71
2022/11/06 10:46:07;;;;;;;5.57;1.98;;;;;;;11.56;88.42;100924.28;5077093;28;20122;-71
2022/11/06 10:48:38;;;;;;;3.83;1.63;;;;;;;11.64;88.43;100926.75;5098087;28;20036;-71
2022/11/06 10:51:27;;;;;;;4.30;2.80;;;;;;;11.72;88.00;100913.22;5090425;28;20020;-71
2022/11/06 10:54:06;;;;;;;8.30;1.80;;;;;;;11.78;87.18;100908.91;5090485;28;20043;-71
2022/11/06 10:56:34;;;;;;;5.30;3.50;;;;;;;11.89;87.43;100900.31;5090490;28;20031;-66
2022/11/06 10:58:59;;;;;;;5.93;1.77;;;;;;;11.96;86.77;100892.31;5090506;28;20031;-67
2022/11/06 11:01:25;;;;;;;8.98;2.22;;;;;;;12.08;85.33;100890.69;5090288;28;20034;-67
2022/11/06 11:03:50;;;;;;;4.13;1.73;;;;;;;12.09;85.15;100886.97;5090434;28;20036;-67
2022/11/06 11:06:16;;;;;;;4.22;1.83;;;;;;;12.05;84.47;100875.03;5090311;28;20437;-67
2022/11/06 11:08:43;;;;;;;10.45;2.58;;;;;;;12.11;84.56;100876.91;5090126;28;20030;-67
2022/11/06 11:11:14;;;;;;;7.13;1.80;;;;;;;12.21;86.13;100865.78;5090215;28;20077;-67
2022/11/06 11:13:41;;;;;;;6.72;3.95;;;;;;;12.36;84.33;100869.03;5090233;28;20031;-67
2022/11/06 11:16:20;;;;;;;9.52;3.10;;;;;;;12.42;83.97;100870.91;5090211;28;20028;-67
2022/11/06 11:18:46;;;;;;;7.65;2.08;;;;;;;12.43;83.79;100863.69;5089450;28;20043;-67
2022/11/06 11:21:17;;;;;;;2.42;1.73;;;;;;;12.39;83.16;100851.75;5089801;28;20111;-67
2022/11/06 11:24:03;;;;;;;5.63;1.50;;;;;;;12.39;81.37;100862.44;5089930;28;20490;-67
2022/11/06 11:26:31;;;;;;;4.88;2.33;;;;;;;12.41;81.97;100852.38;5090087;28;20360;-68
2022/11/06 11:29:13;;;;;;;4.85;2.40;;;;;;;12.46;83.62;100861.41;5090093;28;20352;-67
2022/11/06 11:31:39;;;;;;;3.95;1.92;;;;;;;12.39;81.10;100857.94;5090698;28;20047;-67
2022/11/06 11:34:15;;;;;;;6.68;2.00;;;;;;;12.38;81.17;100860.81;5095206;28;20068;-66
2022/11/06 11:36:58;;;;;;;4.35;1.83;;;;;;;12.27;80.08;100843.56;5097024;28;20023;-67
2022/11/06 11:39:40;;;;;;;3.20;1.75;;;;;;;12.15;81.29;100829.97;5096735;28;20027;-67
2022/11/06 11:42:22;;;;;;;5.13;1.42;;;;;;;12.13;80.17;100832.06;5097229;28;20034;-67
2022/11/06 11:45:07;;;;;;;4.30;1.60;;;;;;;12.13;80.22;100836.56;5095191;28;20496;-67
2022/11/06 11:47:33;;;;;;;8.07;2.20;;;;;;;12.08;78.59;100821.16;5036815;28;20468;-67
2022/11/06 11:50:17;;;;;;;5.32;2.03;;;;;;;12.10;80.53;100819.09;5044931;28;20079;-67
2022/11/06 11:52:45;;;;;;;6.85;2.08;;;;;;;12.05;78.94;100825.06;5045004;28;20028;-67